createdAt,value
2022-10-14T00:01:17.148Z,2.03
2022-10-14T00:03:44.933Z,1.80
2022-10-14T00:06:14.801Z,1.50
2022-10-14T00:08:42.507Z,1.75
2022-10-14T00:11:12.089Z,2.17
2022-10-14T00:13:39.208Z,2.10
2022-10-14T00:16:14.182Z,2.13
2022-10-14T00:18:40.775Z,2.33
2022-10-14T00:21:07.418Z,2.53
2022-10-14T00:23:34.062Z,2.05
2022-10-14T00:26:00.718Z,1.60
2022-10-14T00:28:27.460Z,2.17
2022-10-14T00:30:59.705Z,1.80
2022-10-14T00:33:27.576Z,2.22
2022-10-14T00:35:59.488Z,2.20
2022-10-14T00:38:26.676Z,2.60
2022-10-14T00:40:54.518Z,2.33
2022-10-14T00:43:23.549Z,1.45
2022-10-14T00:45:50.422Z,1.88
2022-10-14T00:48:19.129Z,1.80
2022-10-14T00:50:48.994Z,1.30
2022-10-14T00:53:17.029Z,1.80
2022-10-14T00:55:43.854Z,1.83
2022-10-14T00:58:11.103Z,1.60
2022-10-14T01:00:38.202Z,2.00
2022-10-14T01:03:20.136Z,1.38
2022-10-14T01:06:03.600Z,1.73
2022-10-14T01:09:03.197Z,1.98
2022-10-14T01:12:26.783Z,1.73
2022-10-14T01:14:51.165Z,2.30
2022-10-14T01:17:32.742Z,1.60
2022-10-14T01:20:11.615Z,2.20
2022-10-14T01:22:47.133Z,1.73
2022-10-14T01:25:34.806Z,1.90
2022-10-14T01:28:13.506Z,2.08
2022-10-14T01:30:55.197Z,1.90
2022-10-14T01:33:28.494Z,2.28
2022-10-14T01:36:10.946Z,1.80
2022-10-14T01:38:46.654Z,1.90
2022-10-14T01:41:22.379Z,2.00
2022-10-14T01:43:51.954Z,2.30
2022-10-14T01:46:21.965Z,2.03
2022-10-14T01:48:54.302Z,1.90
2022-10-14T01:51:27.701Z,2.00
2022-10-14T01:54:06.223Z,2.25
2022-10-14T01:56:40.571Z,1.80
2022-10-14T01:59:10.164Z,2.25
2022-10-14T02:01:37.133Z,2.35
2022-10-14T02:04:17.845Z,2.13
2022-10-14T02:06:52.485Z,2.28
2022-10-14T02:09:34.099Z,1.92
2022-10-14T02:12:19.180Z,1.63
2022-10-14T02:15:02.812Z,1.98
2022-10-14T02:18:13.041Z,2.33
2022-10-14T02:21:06.542Z,2.13
2022-10-14T02:23:39.303Z,1.75
2022-10-14T02:26:06.349Z,2.45
2022-10-14T02:28:34.881Z,2.15
2022-10-14T02:31:07.126Z,1.70
2022-10-14T02:33:43.741Z,1.87
2022-10-14T02:36:17.478Z,2.25
2022-10-14T02:38:48.718Z,1.63
2022-10-14T02:41:19.560Z,1.58
2022-10-14T02:43:46.538Z,2.10
2022-10-14T02:46:13.534Z,1.95
2022-10-14T02:48:40.359Z,1.80
2022-10-14T02:51:07.135Z,1.60
2022-10-14T02:53:34.974Z,1.98
2022-10-14T02:56:03.727Z,1.77
2022-10-14T02:58:33.486Z,2.42
2022-10-14T03:01:00.106Z,1.60
2022-10-14T03:03:26.725Z,2.08
2022-10-14T03:05:53.329Z,1.58
2022-10-14T03:08:23.289Z,1.63
2022-10-14T03:10:49.943Z,1.85
2022-10-14T03:13:16.865Z,2.10
2022-10-14T03:15:43.483Z,2.35
2022-10-14T03:18:10.121Z,1.80
2022-10-14T03:20:39.765Z,1.83
2022-10-14T03:23:06.421Z,2.00
2022-10-14T03:25:36.686Z,1.80
2022-10-14T03:28:03.537Z,1.88
2022-10-14T03:30:30.218Z,1.63
2022-10-14T03:32:57.161Z,2.00
2022-10-14T03:35:23.787Z,1.73
2022-10-14T03:37:52.981Z,1.95
2022-10-14T03:40:19.604Z,1.88
2022-10-14T03:42:46.278Z,2.17
2022-10-14T03:45:13.081Z,1.60
2022-10-14T03:47:46.858Z,2.22
2022-10-14T03:50:13.585Z,1.52
2022-10-14T03:52:44.843Z,1.80
2022-10-14T03:55:13.342Z,1.67
2022-10-14T03:57:39.970Z,1.67
2022-10-14T04:00:07.605Z,1.88
2022-10-14T04:02:34.309Z,1.90
2022-10-14T04:05:04.278Z,1.90
2022-10-14T04:07:33.653Z,2.13
2022-10-14T04:10:00.261Z,1.90
2022-10-14T04:12:27.092Z,1.88
2022-10-14T04:14:57.201Z,1.58
2022-10-14T04:17:27.155Z,1.98
2022-10-14T04:19:53.945Z,1.70
2022-10-14T04:22:23.030Z,1.48
2022-10-14T04:24:50.217Z,1.80
2022-10-14T04:27:17.945Z,2.05
2022-10-14T04:29:44.708Z,1.60
2022-10-14T04:32:13.454Z,2.20
2022-10-14T04:34:42.377Z,1.52
2022-10-14T04:37:09.022Z,1.67
2022-10-14T04:39:35.696Z,1.60
2022-10-14T04:42:05.074Z,1.73
2022-10-14T04:44:31.892Z,1.85
2022-10-14T04:46:58.591Z,2.03
2022-10-14T04:49:27.287Z,1.40
2022-10-14T04:51:53.947Z,1.60
2022-10-14T04:54:20.601Z,1.42
2022-10-14T04:56:49.996Z,1.70
2022-10-14T04:59:16.930Z,1.58
2022-10-14T05:01:43.597Z,1.50
2022-10-14T05:04:12.657Z,1.83
2022-10-14T05:06:39.402Z,2.10
2022-10-14T05:09:08.701Z,1.60
2022-10-14T05:11:38.225Z,1.77
2022-10-14T05:14:04.849Z,1.57
2022-10-14T05:16:31.531Z,1.80
2022-10-14T05:18:58.212Z,1.93
2022-10-14T05:21:24.846Z,1.77
2022-10-14T05:23:51.829Z,1.70
2022-10-14T05:26:18.451Z,1.80
2022-10-14T05:28:47.990Z,1.45
2022-10-14T05:31:14.733Z,1.60
2022-10-14T05:33:41.333Z,2.03
2022-10-14T05:36:08.273Z,1.87
2022-10-14T05:38:40.348Z,2.03
2022-10-14T05:41:06.979Z,2.33
2022-10-14T05:43:40.976Z,1.63
2022-10-14T05:46:07.644Z,1.60
2022-10-14T05:48:37.149Z,1.88
2022-10-14T05:51:03.972Z,2.00
2022-10-14T05:53:32.397Z,2.13
2022-10-14T05:56:17.843Z,2.00
2022-10-14T05:58:46.609Z,1.98
2022-10-14T06:01:13.295Z,2.30
2022-10-14T06:03:40.077Z,2.40
2022-10-14T06:06:07.057Z,2.35
2022-10-14T06:08:35.924Z,2.30
2022-10-14T06:11:04.617Z,1.52
2022-10-14T06:13:33.722Z,1.92
2022-10-14T06:16:08.586Z,2.05
2022-10-14T06:18:36.146Z,1.85
2022-10-14T06:21:06.555Z,2.33
2022-10-14T06:23:36.092Z,2.10
2022-10-14T06:26:07.455Z,1.75
2022-10-14T06:28:34.202Z,2.15
2022-10-14T06:31:03.862Z,2.17
2022-10-14T06:33:38.025Z,2.08
2022-10-14T06:36:05.992Z,2.72
2022-10-14T06:38:35.425Z,2.50
2022-10-14T06:41:02.073Z,2.72
2022-10-14T06:43:28.680Z,2.22
2022-10-14T06:45:57.593Z,2.10
2022-10-14T06:48:24.349Z,1.98
2022-10-14T06:50:50.980Z,2.55
2022-10-14T06:53:21.257Z,1.90
2022-10-14T06:55:47.869Z,2.00
2022-10-14T06:58:14.502Z,2.10
2022-10-14T07:00:47.897Z,2.40
2022-10-14T07:03:14.969Z,2.53
2022-10-14T07:05:41.898Z,1.93
2022-10-14T07:08:11.300Z,2.05
2022-10-14T07:10:41.161Z,2.45
2022-10-14T07:13:07.822Z,2.38
2022-10-14T07:15:36.301Z,2.45
2022-10-14T07:18:04.839Z,2.22
2022-10-14T07:20:31.620Z,2.23
2022-10-14T07:25:38.964Z,2.40
2022-10-14T07:28:05.825Z,2.35
2022-10-14T07:30:32.678Z,2.58
2022-10-14T07:32:59.679Z,2.63
2022-10-14T07:35:29.206Z,2.58
2022-10-14T07:37:57.913Z,2.60
2022-10-14T07:40:24.622Z,2.60
2022-10-14T07:42:51.289Z,2.35
2022-10-14T07:45:20.735Z,2.53
2022-10-14T07:47:49.145Z,2.47
2022-10-14T07:50:15.825Z,2.75
2022-10-14T07:52:46.858Z,2.80
2022-10-14T07:55:13.564Z,2.90
2022-10-14T07:57:43.387Z,2.28
2022-10-14T08:00:10.968Z,3.03
2022-10-14T08:02:37.677Z,2.95
2022-10-14T08:05:32.875Z,2.40
2022-10-14T08:07:55.771Z,2.50
2022-10-14T08:10:22.535Z,2.50
2022-10-14T08:12:49.193Z,2.47
2022-10-14T08:15:19.068Z,2.70
2022-10-14T08:17:45.684Z,2.33
2022-10-14T08:20:12.449Z,2.30
2022-10-14T08:22:39.200Z,2.40
2022-10-14T08:25:06.109Z,2.28
2022-10-14T08:27:32.802Z,2.50
2022-10-14T08:29:59.430Z,2.40
2022-10-14T08:32:28.127Z,2.00
2022-10-14T08:34:58.291Z,2.35
2022-10-14T08:37:24.914Z,2.33
2022-10-14T08:39:54.607Z,2.10
2022-10-14T08:42:24.578Z,2.15
2022-10-14T08:45:02.799Z,2.10
2022-10-14T08:47:37.608Z,2.17
2022-10-14T08:50:17.262Z,2.70
2022-10-14T08:53:06.576Z,2.28
2022-10-14T08:55:41.057Z,2.30
2022-10-14T08:58:22.644Z,2.08
2022-10-14T09:00:52.328Z,1.60
2022-10-14T09:03:26.999Z,1.98
2022-10-14T09:09:49.864Z,2.08
2022-10-14T09:12:21.120Z,2.33
2022-10-14T09:15:00.530Z,2.08
2022-10-14T09:17:39.945Z,2.47
2022-10-14T09:20:18.015Z,1.73
2022-10-14T09:23:11.621Z,2.47
2022-10-14T09:25:40.789Z,1.80
2022-10-14T09:28:09.047Z,2.15
2022-10-14T09:30:40.550Z,2.10
2022-10-14T09:33:13.602Z,1.98
2022-10-14T09:35:43.546Z,1.77
2022-10-14T09:38:15.342Z,1.95
2022-10-14T09:40:45.261Z,2.10
2022-10-14T09:43:20.979Z,2.00
2022-10-14T09:46:00.924Z,1.90
2022-10-14T09:48:32.723Z,1.85
2022-10-14T09:51:03.228Z,1.80
2022-10-14T09:53:37.968Z,1.80
2022-10-14T09:56:07.670Z,1.83
2022-10-14T09:58:47.468Z,1.55
2022-10-14T10:01:19.534Z,1.88
2022-10-14T10:03:48.724Z,1.80
2022-10-14T10:06:26.740Z,1.97
2022-10-14T10:09:00.826Z,1.90
2022-10-14T10:11:35.849Z,1.92
2022-10-14T10:14:22.509Z,2.03
2022-10-14T10:19:56.476Z,1.48
2022-10-14T10:22:31.493Z,1.48
2022-10-14T10:25:01.118Z,1.57
2022-10-14T10:27:36.595Z,1.33
2022-10-14T10:30:15.222Z,1.67
2022-10-14T10:32:50.491Z,1.50
2022-10-14T10:35:44.907Z,1.50
2022-10-14T10:38:21.845Z,1.33
2022-10-14T10:41:04.071Z,1.47
2022-10-14T10:43:59.692Z,1.30
2022-10-14T10:46:53.765Z,1.40
2022-10-14T10:49:52.140Z,1.40
2022-10-14T10:52:41.178Z,1.38
2022-10-14T10:55:18.709Z,1.50
2022-10-14T10:58:03.735Z,1.77
2022-10-14T11:00:46.338Z,1.63
2022-10-14T11:03:19.202Z,1.30
2022-10-14T11:06:08.106Z,1.20
2022-10-14T11:09:11.569Z,1.20
2022-10-14T11:12:17.681Z,1.63
2022-10-14T11:14:46.274Z,1.00
2022-10-14T11:17:31.435Z,1.40
2022-10-14T11:20:08.267Z,1.50
2022-10-14T11:22:50.850Z,1.35
2022-10-14T11:25:26.050Z,1.40
2022-10-14T11:28:16.790Z,1.50
2022-10-14T11:30:53.299Z,1.90
2022-10-14T11:33:45.462Z,1.50
2022-10-14T11:36:50.025Z,1.65
2022-10-14T11:39:41.024Z,1.42
2022-10-14T11:42:42.977Z,1.33
2022-10-14T11:45:41.185Z,1.00
2022-10-14T11:48:19.833Z,1.40
2022-10-14T11:50:50.378Z,1.20
2022-10-14T11:53:20.089Z,1.35
2022-10-14T11:55:53.765Z,1.05
2022-10-14T11:58:25.629Z,1.20
2022-10-14T12:01:09.472Z,1.10
2022-10-14T12:04:08.388Z,1.20
2022-10-14T12:06:37.822Z,1.35
2022-10-14T12:09:29.424Z,1.20
2022-10-14T12:12:05.897Z,1.58
2022-10-14T12:14:43.542Z,1.30
2022-10-14T12:17:24.232Z,1.20
2022-10-14T12:19:51.433Z,1.00
2022-10-14T12:22:30.727Z,1.02
2022-10-14T12:25:15.013Z,1.17
2022-10-14T12:27:42.049Z,0.88
2022-10-14T12:30:42.475Z,0.70
2022-10-14T12:33:15.863Z,0.90
2022-10-14T12:35:47.786Z,1.08
2022-10-14T12:38:14.573Z,0.80
2022-10-14T12:40:43.401Z,1.10
2022-10-14T12:43:13.372Z,1.20
2022-10-14T12:45:58.229Z,0.88
2022-10-14T12:48:27.596Z,1.20
2022-10-14T12:51:19.022Z,1.10
2022-10-14T12:54:14.344Z,0.93
2022-10-14T12:56:59.661Z,0.68
2022-10-14T12:59:53.738Z,1.10
2022-10-14T13:02:43.167Z,1.17
2022-10-14T13:08:11.681Z,1.38
2022-10-14T13:10:41.860Z,1.08
2022-10-14T13:13:58.856Z,1.33
2022-10-14T13:16:25.458Z,1.40
2022-10-14T13:18:55.737Z,1.00
2022-10-14T13:21:32.659Z,0.93
2022-10-14T13:24:21.610Z,0.90
2022-10-14T13:26:54.379Z,0.73
2022-10-14T13:29:20.994Z,0.82
2022-10-14T13:32:09.449Z,0.82
2022-10-14T13:35:07.064Z,0.80
2022-10-14T13:37:46.105Z,0.93
2022-10-14T13:40:22.000Z,0.93
2022-10-14T13:42:55.188Z,1.00
2022-10-14T13:45:30.620Z,0.93
2022-10-14T13:47:57.275Z,1.07
2022-10-14T13:50:27.737Z,1.00
2022-10-14T13:53:15.421Z,0.90
2022-10-14T13:55:53.113Z,1.00
2022-10-14T13:58:24.823Z,1.00
2022-10-14T14:00:58.131Z,1.08
2022-10-14T14:03:35.062Z,1.05
2022-10-14T14:06:10.327Z,1.00
2022-10-14T14:08:47.359Z,0.82
2022-10-14T14:11:26.173Z,1.13
2022-10-14T14:14:20.672Z,0.98
2022-10-14T14:16:59.850Z,0.90
2022-10-14T14:19:29.752Z,1.20
2022-10-14T14:22:19.349Z,1.25
2022-10-14T14:24:50.545Z,0.90
2022-10-14T14:27:24.045Z,0.90
2022-10-14T14:29:53.344Z,0.77
2022-10-14T14:32:23.400Z,1.00
2022-10-14T14:34:51.096Z,1.10
2022-10-14T14:37:48.080Z,1.13
2022-10-14T14:40:24.132Z,1.30
2022-10-14T14:43:04.588Z,1.20
2022-10-14T14:45:37.101Z,1.00
2022-10-14T14:48:08.286Z,0.93
2022-10-14T14:50:46.572Z,0.88
2022-10-14T14:53:27.313Z,0.85
2022-10-14T14:55:56.741Z,1.00
2022-10-14T14:58:29.297Z,1.10
2022-10-14T15:00:56.513Z,1.10
2022-10-14T15:03:28.776Z,1.20
2022-10-14T15:06:02.781Z,0.93
2022-10-14T15:08:37.982Z,0.70
2022-10-14T15:11:06.162Z,0.90
2022-10-14T15:13:41.089Z,1.20
2022-10-14T15:16:08.095Z,0.90
2022-10-14T15:18:37.488Z,0.88
2022-10-14T15:21:15.650Z,1.07
2022-10-14T15:24:00.192Z,1.00
2022-10-14T15:26:31.926Z,0.98
2022-10-14T15:29:13.815Z,1.13
2022-10-14T15:31:42.757Z,1.02
2022-10-14T15:34:20.297Z,1.23
2022-10-14T15:36:49.992Z,0.98
2022-10-14T15:39:16.637Z,0.93
2022-10-14T15:41:52.993Z,0.80
2022-10-14T15:44:22.459Z,0.65
2022-10-14T15:47:13.609Z,0.70
2022-10-14T15:49:42.723Z,0.90
2022-10-14T15:52:21.656Z,1.43
2022-10-14T15:54:51.397Z,0.90
2022-10-14T15:57:19.055Z,0.93
2022-10-14T15:59:45.672Z,1.52
2022-10-14T16:02:25.325Z,1.05
2022-10-14T16:05:18.679Z,1.45
2022-10-14T16:07:43.082Z,0.80
2022-10-14T16:10:13.219Z,0.68
2022-10-14T16:12:40.503Z,0.98
2022-10-14T16:15:32.193Z,0.80
2022-10-14T16:17:59.110Z,0.93
2022-10-14T16:20:27.018Z,0.82
2022-10-14T16:22:53.947Z,0.88
2022-10-14T16:25:33.585Z,0.80
2022-10-14T16:28:10.588Z,0.68
2022-10-14T16:30:44.010Z,0.73
2022-10-14T16:35:38.296Z,0.63
2022-10-14T16:38:04.929Z,0.80
2022-10-14T16:40:36.771Z,0.60
2022-10-14T16:43:04.142Z,0.80
2022-10-14T16:45:30.942Z,0.60
2022-10-14T16:48:01.187Z,0.68
2022-10-14T16:50:28.135Z,0.70
2022-10-14T16:53:13.321Z,0.90
2022-10-14T16:55:39.921Z,3.03
2022-10-14T16:58:09.525Z,0.93
2022-10-14T17:00:41.007Z,0.60
2022-10-14T17:03:07.846Z,0.68
2022-10-14T17:05:37.572Z,0.60
2022-10-14T17:08:10.146Z,0.87
2022-10-14T17:10:38.948Z,0.75
2022-10-14T17:13:05.944Z,0.90
2022-10-14T17:15:41.469Z,0.80
2022-10-14T17:18:12.490Z,0.68
2022-10-14T17:20:39.298Z,1.02
2022-10-14T17:23:10.329Z,0.80
2022-10-14T17:25:37.378Z,1.08
2022-10-14T17:28:06.796Z,0.85
2022-10-14T17:30:39.168Z,0.70
2022-10-14T17:33:05.812Z,0.80
2022-10-14T17:35:36.311Z,0.63
2022-10-14T17:38:02.917Z,0.75
2022-10-14T17:40:33.596Z,0.70
2022-10-14T17:43:00.719Z,0.90
2022-10-14T17:45:28.070Z,0.73
2022-10-14T17:47:55.310Z,0.70
2022-10-14T17:50:22.800Z,1.08
2022-10-14T17:52:52.339Z,0.93
2022-10-14T17:55:22.073Z,0.82
2022-10-14T17:57:50.868Z,0.77
2022-10-14T18:00:17.697Z,1.10
2022-10-14T18:02:46.598Z,0.80
2022-10-14T18:05:13.704Z,1.02
2022-10-14T18:07:40.596Z,0.87
2022-10-14T18:10:07.538Z,0.90
2022-10-14T18:12:34.235Z,0.80
2022-10-14T18:15:01.707Z,0.80
2022-10-14T18:17:28.370Z,0.73
2022-10-14T18:20:02.107Z,0.80
2022-10-14T18:22:29.661Z,0.98
2022-10-14T18:24:56.333Z,1.05
2022-10-14T18:27:25.180Z,0.73
2022-10-14T18:29:52.188Z,0.70
2022-10-14T18:32:18.861Z,0.70
2022-10-14T18:34:48.573Z,0.93
2022-10-14T18:37:15.259Z,0.75
2022-10-14T18:39:44.940Z,0.75
2022-10-14T18:42:11.525Z,0.57
2022-10-14T18:44:38.203Z,0.57
2022-10-14T18:47:04.956Z,0.68
2022-10-14T18:49:34.546Z,0.57
2022-10-14T18:52:04.829Z,0.50
2022-10-14T18:54:32.463Z,0.60
2022-10-14T18:56:59.756Z,0.80
2022-10-14T18:59:29.693Z,0.63
2022-10-14T19:02:02.016Z,0.50
2022-10-14T19:04:28.705Z,0.50
2022-10-14T19:06:55.411Z,0.40
2022-10-14T19:09:24.773Z,0.43
2022-10-14T19:11:52.539Z,0.50
2022-10-14T19:14:28.906Z,0.70
2022-10-14T19:16:55.661Z,0.47
2022-10-14T19:19:22.705Z,0.50
2022-10-14T19:21:51.066Z,0.68
2022-10-14T19:24:17.722Z,0.70
2022-10-14T19:26:46.215Z,0.40
2022-10-14T19:29:14.466Z,0.60
2022-10-14T19:31:50.408Z,0.35
2022-10-14T19:34:17.277Z,0.60
2022-10-14T19:36:47.690Z,0.50
2022-10-14T19:39:16.442Z,0.60
2022-10-14T19:41:44.647Z,0.50
2022-10-14T19:44:12.670Z,0.40
2022-10-14T19:46:40.208Z,0.40
2022-10-14T19:49:13.897Z,0.60
2022-10-14T19:51:44.023Z,0.70
2022-10-14T19:54:12.396Z,0.52
2022-10-14T19:56:39.758Z,0.30
2022-10-14T19:59:06.434Z,0.30
2022-10-14T20:01:33.450Z,0.22
2022-10-14T20:04:02.005Z,0.30
2022-10-14T20:06:35.426Z,0.30
2022-10-14T20:09:11.469Z,0.17
2022-10-14T20:11:38.240Z,0.20
2022-10-14T20:14:04.944Z,0.20
2022-10-14T20:16:31.703Z,0.20
2022-10-14T20:19:00.937Z,0.20
2022-10-14T20:21:31.787Z,0.20
2022-10-14T20:24:01.400Z,0.20
2022-10-14T20:26:28.499Z,0.30
2022-10-14T20:28:55.364Z,0.45
2022-10-14T20:31:22.541Z,0.20
2022-10-14T20:33:49.600Z,0.30
2022-10-14T20:36:18.970Z,0.23
2022-10-14T20:38:47.200Z,0.30
2022-10-14T20:41:17.057Z,0.28
2022-10-14T20:43:44.882Z,0.20
2022-10-14T20:46:15.123Z,0.20
2022-10-14T20:48:42.169Z,0.10
2022-10-14T20:51:12.756Z,0.30
2022-10-14T20:53:42.533Z,0.13
2022-10-14T20:56:14.145Z,0.20
2022-10-14T20:58:41.257Z,0.10
2022-10-14T21:01:10.788Z,0.10
2022-10-14T21:03:37.856Z,0.20
2022-10-14T21:06:06.986Z,0.10
2022-10-14T21:08:33.895Z,0.20
2022-10-14T21:11:02.051Z,0.20
2022-10-14T21:13:30.045Z,0.20
2022-10-14T21:15:56.955Z,0.30
2022-10-14T21:18:27.527Z,0.30
2022-10-14T21:20:54.183Z,0.25
2022-10-14T21:23:23.279Z,0.43
2022-10-14T21:25:59.349Z,0.32
2022-10-14T21:28:26.530Z,0.50
2022-10-14T21:30:53.222Z,0.20
2022-10-14T21:33:19.894Z,0.40
2022-10-14T21:35:46.563Z,0.23
2022-10-14T21:38:13.239Z,0.40
2022-10-14T21:40:39.971Z,0.40
2022-10-14T21:43:06.763Z,0.40
2022-10-14T21:45:33.984Z,0.40
2022-10-14T21:48:00.594Z,0.30
2022-10-14T21:50:27.255Z,0.30
2022-10-14T21:52:53.913Z,0.30
2022-10-14T21:55:23.480Z,0.52
2022-10-14T21:57:51.438Z,0.47
2022-10-14T22:00:18.311Z,0.40
2022-10-14T22:02:44.956Z,0.28
2022-10-14T22:05:11.775Z,0.40
2022-10-14T22:07:38.405Z,0.30
2022-10-14T22:10:28.085Z,0.30
2022-10-14T22:12:56.842Z,0.30
2022-10-14T22:15:24.868Z,0.20
2022-10-14T22:17:54.490Z,0.20
2022-10-14T22:20:21.145Z,0.20
2022-10-14T22:22:48.222Z,0.30
2022-10-14T22:25:15.573Z,0.30
2022-10-14T22:27:49.312Z,0.30
2022-10-14T22:30:16.172Z,0.20
2022-10-14T22:32:42.936Z,0.50
2022-10-14T22:35:09.723Z,0.40
2022-10-14T22:37:36.361Z,0.50
2022-10-14T22:40:03.362Z,0.50
2022-10-14T22:42:30.081Z,0.60
2022-10-14T22:44:56.813Z,0.73
2022-10-14T22:47:23.867Z,0.27
2022-10-14T22:49:50.702Z,0.60
2022-10-14T22:52:17.401Z,0.30
2022-10-14T22:54:50.277Z,0.43
2022-10-14T22:57:19.322Z,0.38
2022-10-14T22:59:46.036Z,0.30
2022-10-14T23:02:12.806Z,0.32
2022-10-14T23:04:42.687Z,0.40
2022-10-14T23:07:09.549Z,0.30
2022-10-14T23:09:36.262Z,0.28
2022-10-14T23:12:02.957Z,0.20
2022-10-14T23:14:30.876Z,0.30
2022-10-14T23:16:57.559Z,0.20
2022-10-14T23:19:24.253Z,0.30
2022-10-14T23:21:50.915Z,0.30
2022-10-14T23:24:17.628Z,0.30
2022-10-14T23:26:47.136Z,0.30
2022-10-14T23:29:13.921Z,0.17
2022-10-14T23:31:41.410Z,0.30
2022-10-14T23:34:12.330Z,0.20
2022-10-14T23:36:39.478Z,0.30
2022-10-14T23:39:06.689Z,0.30
2022-10-14T23:41:33.352Z,0.30
2022-10-14T23:43:59.998Z,0.20
2022-10-14T23:46:26.740Z,0.20
2022-10-14T23:49:06.629Z,0.40
2022-10-14T23:51:33.838Z,0.20
2022-10-14T23:54:00.506Z,0.20
2022-10-14T23:56:27.149Z,0.38
2022-10-14T23:58:53.788Z,0.30
